| time (UTC) | temp F | wind direction | speed MPH | gust MPH | rain 1hr in | rain 24hr in | rain mn in | humidity % | barometer mb |
| 20260901205518 | 75 | 217 | 7.0 | 13.0 | 0.00 | 0.00 | 0.00 | 46 | 1015.0 |
| 20260901205017 | 75 | 311 | 7.0 | 12.0 | 0.00 | 0.00 | 0.00 | 49 | 1015.0 |
| 20260901204539 | 74 | 263 | 4.0 | 13.0 | 0.00 | 0.00 | 0.00 | 49 | 1015.0 |
| 20260901204020 | 75 | 293 | 8.0 | 14.0 | 0.00 | 0.00 | 0.00 | 50 | 1015.3 |
| 20260901203519 | 74 | 234 | 8.0 | 14.0 | 0.00 | 0.00 | 0.00 | 48 | 1015.2 |
| 20260901203051 | 74 | 227 | 7.0 | 14.0 | 0.00 | 0.00 | 0.00 | 49 | 1015.2 |
| 20260901202521 | 74 | 234 | 3.0 | 13.0 | 0.00 | 0.00 | 0.00 | 49 | 1015.3 |
| 20260901202021 | 75 | 261 | 8.0 | 13.0 | 0.00 | 0.00 | 0.00 | 47 | 1015.4 |
| 20260901201537 | 75 | 228 | 8.0 | 19.0 | 0.00 | 0.00 | 0.00 | 48 | 1015.4 |
| 20260901201018 | 76 | 209 | 10.0 | 19.0 | 0.00 | 0.00 | 0.00 | 47 | 1015.5 |
| 20260901200519 | 74 | 328 | 5.0 | 10.0 | 0.00 | 0.00 | 0.00 | 52 | 1015.4 |
| 20260901200041 | 73 | 0 | 2.0 | 17.0 | 0.00 | 0.00 | 0.00 | 51 | 1015.5 |
| 20260901195516 | 75 | 269 | 9.0 | 17.0 | 0.00 | 0.00 | 0.00 | 48 | 1015.6 |
| 20260901195021 | 76 | 259 | 11.0 | 16.0 | 0.00 | 0.00 | 0.00 | 49 | 1015.6 |
| 20260901194541 | 76 | 242 | 8.0 | 15.0 | 0.00 | 0.00 | 0.00 | 50 | 1015.6 |
| 20260901194021 | 73 | 301 | 6.0 | 16.0 | 0.00 | 0.00 | 0.00 | 55 | 1015.7 |
| 20260901193519 | 74 | 275 | 10.0 | 16.0 | 0.00 | 0.00 | 0.00 | 50 | 1015.7 |
| 20260901193041 | 74 | 252 | 11.0 | 16.0 | 0.00 | 0.00 | 0.00 | 52 | 1015.8 |
| 20260901192517 | 75 | 235 | 9.0 | 14.0 | 0.00 | 0.00 | 0.00 | 49 | 1015.9 |
| 20260901192019 | 75 | 197 | 8.0 | 16.0 | 0.00 | 0.00 | 0.00 | 46 | 1015.8 |
| 20260901191537 | 74 | 236 | 10.0 | 16.0 | 0.00 | 0.00 | 0.00 | 49 | 1015.9 |
| 20260901191017 | 74 | 231 | 8.0 | 15.0 | 0.00 | 0.00 | 0.00 | 49 | 1015.8 |
| 20260901190519 | 74 | 228 | 9.0 | 14.0 | 0.00 | 0.00 | 0.00 | 49 | 1015.8 |
| 20260901190035 | 72 | 208 | 7.0 | 12.0 | 0.00 | 0.00 | 0.00 | 51 | 1015.8 |
| 20260901185521 | 72 | 263 | 6.0 | 13.0 | 0.00 | 0.00 | 0.00 | 51 | 1015.8 |
| 20260901185020 | 71 | 247 | 8.0 | 14.0 | 0.00 | 0.00 | 0.00 | 53 | 1016.0 |
| 20260901184534 | 73 | 234 | 8.0 | 14.0 | 0.00 | 0.00 | 0.00 | 52 | 1016.1 |
| 20260901184021 | 73 | 256 | 9.0 | 14.0 | 0.00 | 0.00 | 0.00 | 53 | 1016.1 |
| 20260901183522 | 71 | 228 | 9.0 | 14.0 | 0.00 | 0.00 | 0.00 | 55 | 1016.1 |
| 20260901183048 | 70 | 221 | 8.0 | 13.0 | 0.00 | 0.00 | 0.00 | 57 | 1016.1 |
| 20260901182516 | 69 | 216 | 10.0 | 13.0 | 0.00 | 0.00 | 0.00 | 58 | 1016.0 |
| 20260901182017 | 69 | 233 | 6.0 | 12.0 | 0.00 | 0.00 | 0.00 | 57 | 1016.1 |
| 20260901181537 | 69 | 221 | 8.0 | 12.0 | 0.00 | 0.00 | 0.00 | 58 | 1016.1 |
| 20260901181022 | 69 | 197 | 5.0 | 9.0 | 0.00 | 0.00 | 0.00 | 58 | 1015.9 |
| 20260901180523 | 69 | 209 | 4.0 | 10.0 | 0.00 | 0.00 | 0.00 | 58 | 1016.0 |
| 20260901180035 | 69 | 198 | 6.0 | 11.0 | 0.00 | 0.00 | 0.00 | 59 | 1016.0 |
| 20260901175517 | 69 | 223 | 8.0 | 11.0 | 0.00 | 0.00 | 0.00 | 60 | 1016.0 |
| 20260901175019 | 69 | 223 | 4.0 | 11.0 | 0.00 | 0.00 | 0.00 | 60 | 1015.9 |
| 20260901174535 | 69 | 237 | 5.0 | 11.0 | 0.00 | 0.00 | 0.00 | 59 | 1016.0 |
| 20260901174020 | 69 | 221 | 8.0 | 12.0 | 0.00 | 0.00 | 0.00 | 59 | 1016.0 |
| 20260901173518 | 69 | 213 | 8.0 | 12.0 | 0.00 | 0.00 | 0.00 | 60 | 1015.9 |
| 20260901173044 | 69 | 215 | 7.0 | 12.0 | 0.00 | 0.00 | 0.00 | 61 | 1015.9 |
| 20260901172518 | 68 | 244 | 4.0 | 13.0 | 0.00 | 0.00 | 0.00 | 61 | 1015.8 |
| 20260901172017 | 68 | 215 | 7.0 | 13.0 | 0.00 | 0.00 | 0.00 | 61 | 1015.8 |
| 20260901171545 | 69 | 254 | 8.0 | 13.0 | 0.00 | 0.00 | 0.00 | 60 | 1015.9 |
| 20260901171020 | 68 | 242 | 8.0 | 12.0 | 0.00 | 0.00 | 0.00 | 60 | 1015.8 |
| 20260901170519 | 68 | 274 | 5.0 | 12.0 | 0.00 | 0.00 | 0.00 | 61 | 1015.7 |
| 20260901170039 | 68 | 234 | 6.0 | 12.0 | 0.00 | 0.00 | 0.00 | 61 | 1015.7 |
| 20260901165519 | 68 | 219 | 7.0 | 12.0 | 0.00 | 0.00 | 0.00 | 62 | 1015.7 |
| 20260901165017 | 68 | 223 | 5.0 | 14.0 | 0.00 | 0.00 | 0.00 | 62 | 1015.7 |
| 20260901164537 | 68 | 255 | 7.0 | 14.0 | 0.00 | 0.00 | 0.00 | 61 | 1015.7 |
| 20260901164019 | 68 | 192 | 8.0 | 13.0 | 0.00 | 0.00 | 0.00 | 62 | 1015.7 |
| 20260901163521 | 67 | 200 | 4.0 | 13.0 | 0.00 | 0.00 | 0.00 | 63 | 1015.5 |
| 20260901163039 | 67 | 215 | 8.0 | 15.0 | 0.00 | 0.00 | 0.00 | 63 | 1015.5 |
| 20260901162519 | 67 | 209 | 9.0 | 15.0 | 0.00 | 0.00 | 0.00 | 64 | 1015.5 |
| 20260901162018 | 66 | 186 | 5.0 | 12.0 | 0.00 | 0.00 | 0.00 | 64 | 1015.4 |
| 20260901161548 | 66 | 192 | 8.0 | 12.0 | 0.00 | 0.00 | 0.00 | 64 | 1015.5 |
| 20260901161025 | 65 | 211 | 7.0 | 11.0 | 0.00 | 0.00 | 0.00 | 65 | 1015.5 |
| 20260901160518 | 65 | 204 | 6.0 | 10.0 | 0.00 | 0.00 | 0.00 | 67 | 1015.4 |
| 20260901160038 | 64 | 219 | 7.0 | 11.0 | 0.00 | 0.00 | 0.00 | 67 | 1015.4 |
| 20260901155520 | 64 | 198 | 7.0 | 13.0 | 0.00 | 0.00 | 0.00 | 67 | 1015.3 |
| 20260901155020 | 64 | 184 | 8.0 | 14.0 | 0.00 | 0.00 | 0.00 | 68 | 1015.3 |
| 20260901154535 | 63 | 169 | 7.0 | 14.0 | 0.00 | 0.00 | 0.00 | 69 | 1015.2 |
| 20260901154016 | 63 | 179 | 5.0 | 12.0 | 0.00 | 0.00 | 0.00 | 70 | 1015.2 |
| 20260901153520 | 62 | 140 | 7.0 | 16.0 | 0.00 | 0.00 | 0.00 | 71 | 1015.1 |
| 20260901153043 | 62 | 121 | 5.0 | 16.0 | 0.00 | 0.00 | 0.00 | 72 | 1014.9 |
| 20260901152519 | 61 | 163 | 8.0 | 14.0 | 0.00 | 0.00 | 0.00 | 73 | 1015.0 |
| 20260901152020 | 61 | 0 | 3.0 | 11.0 | 0.00 | 0.00 | 0.00 | 74 | 1014.8 |
| 20260901151537 | 60 | 165 | 4.0 | 9.0 | 0.00 | 0.00 | 0.00 | 75 | 1014.6 |
| 20260901151020 | 60 | 121 | 3.0 | 8.0 | 0.00 | 0.00 | 0.00 | 77 | 1014.6 |
| 20260901150520 | 59 | 175 | 2.0 | 9.0 | 0.00 | 0.00 | 0.00 | 78 | 1014.7 |
| 20260901150035 | 59 | 200 | 0.0 | 9.0 | 0.00 | 0.00 | 0.00 | 78 | 1014.7 |
| 20260901145516 | 58 | 140 | 0.0 | 3.0 | 0.00 | 0.00 | 0.00 | 79 | 1014.6 |
| 20260901145019 | 58 | 0 | 0.0 | 3.0 | 0.00 | 0.00 | 0.00 | 79 | 1014.6 |
| 20260901144536 | 58 | 0 | 0.0 | 1.0 | 0.00 | 0.00 | 0.00 | 80 | 1014.5 |
| 20260901144023 | 57 | 0 | 0.0 | 1.0 | 0.00 | 0.00 | 0.00 | 81 | 1014.5 |
| 20260901143518 | 57 | 0 | 0.0 | 0.0 | 0.00 | 0.00 | 0.00 | 82 | 1014.4 |
| 20260901143036 | 56 | 0 | 0.0 | 0.0 | 0.00 | 0.00 | 0.00 | 82 | 1014.4 |
| 20260901142519 | 56 | 0 | 0.0 | 0.0 | 0.00 | 0.00 | 0.00 | 83 | 1014.4 |
| 20260901142023 | 55 | 0 | 0.0 | 0.0 | 0.00 | 0.00 | 0.00 | 83 | 1014.3 |
| 20260901141544 | 55 | 0 | 0.0 | 0.0 | 0.00 | 0.00 | 0.00 | 83 | 1014.1 |
| 20260901141021 | 55 | 0 | 0.0 | 2.0 | 0.00 | 0.00 | 0.00 | 82 | 1014.1 |
| 20260901140522 | 55 | 0 | 0.0 | 6.0 | 0.00 | 0.00 | 0.00 | 82 | 1013.9 |
| 20260901140035 | 55 | 0 | 1.0 | 6.0 | 0.00 | 0.00 | 0.00 | 82 | 1013.9 |
| 20260901135519 | 55 | 0 | 0.0 | 4.0 | 0.00 | 0.00 | 0.00 | 82 | 1013.9 |
| 20260901135016 | 55 | 0 | 0.0 | 4.0 | 0.00 | 0.00 | 0.00 | 81 | 1013.8 |
| 20260901134535 | 55 | 113 | 0.0 | 4.0 | 0.00 | 0.00 | 0.00 | 81 | 1013.7 |
| 20260901134021 | 55 | 0 | 0.0 | 2.0 | 0.00 | 0.00 | 0.00 | 80 | 1013.9 |
| 20260901133518 | 55 | 0 | 0.0 | 0.0 | 0.00 | 0.00 | 0.00 | 80 | 1013.8 |
| 20260901133035 | 55 | 0 | 0.0 | 0.0 | 0.00 | 0.00 | 0.00 | 81 | 1013.8 |
| 20260901132520 | 56 | 0 | 0.0 | 0.0 | 0.00 | 0.00 | 0.00 | 80 | 1013.7 |
| 20260901132018 | 56 | 0 | 0.0 | 0.0 | 0.00 | 0.00 | 0.00 | 80 | 1013.7 |
| 20260901131536 | 56 | 0 | 0.0 | 2.0 | 0.00 | 0.00 | 0.00 | 80 | 1013.7 |
| 20260901131020 | 56 | 0 | 0.0 | 2.0 | 0.00 | 0.00 | 0.00 | 80 | 1013.6 |
| 20260901130520 | 56 | 0 | 0.0 | 2.0 | 0.00 | 0.00 | 0.00 | 80 | 1013.5 |
| 20260901130036 | 56 | 0 | 0.0 | 1.0 | 0.00 | 0.00 | 0.00 | 79 | 1013.5 |
| 20260901125521 | 56 | 0 | 0.0 | 1.0 | 0.00 | 0.00 | 0.00 | 79 | 1013.4 |
| 20260901125016 | 57 | 0 | 0.0 | 1.0 | 0.00 | 0.00 | 0.00 | 78 | 1013.4 |
| 20260901124540 | 57 | 0 | 0.0 | 0.0 | 0.00 | 0.00 | 0.00 | 78 | 1013.4 |
| 20260901124020 | 57 | 0 | 0.0 | 0.0 | 0.00 | 0.00 | 0.00 | 78 | 1013.3 |
| 20260901123522 | 57 | 0 | 0.0 | 3.0 | 0.00 | 0.00 | 0.00 | 77 | 1013.3 |
| 20260901123052 | 57 | 0 | 0.0 | 3.0 | 0.00 | 0.00 | 0.00 | 77 | 1013.4 |
| 20260901122522 | 58 | 0 | 0.0 | 3.0 | 0.00 | 0.00 | 0.00 | 77 | 1013.4 |
| 20260901122019 | 58 | 0 | 0.0 | 5.0 | 0.00 | 0.00 | 0.00 | 77 | 1013.4 |
| 20260901121538 | 58 | 117 | 0.0 | 5.0 | 0.00 | 0.00 | 0.00 | 77 | 1013.5 |
| 20260901121022 | 58 | 0 | 0.0 | 5.0 | 0.00 | 0.00 | 0.00 | 78 | 1013.4 |
| 20260901120521 | 58 | 189 | 1.0 | 7.0 | 0.00 | 0.00 | 0.00 | 78 | 1013.4 |
| 20260901120036 | 58 | 163 | 1.0 | 9.0 | 0.00 | 0.00 | 0.00 | 78 | 1013.5 |
| 20260901115521 | 58 | 175 | 0.0 | 9.0 | 0.00 | 0.00 | 0.00 | 78 | 1013.4 |
| 20260901115020 | 58 | 0 | 2.0 | 9.0 | 0.00 | 0.00 | 0.00 | 78 | 1013.4 |
| 20260901114538 | 58 | 142 | 1.0 | 9.0 | 0.00 | 0.00 | 0.00 | 78 | 1013.3 |
| 20260901114018 | 57 | 0 | 0.0 | 9.0 | 0.00 | 0.00 | 0.00 | 78 | 1013.2 |
| 20260901113520 | 57 | 0 | 0.0 | 4.0 | 0.00 | 0.00 | 0.00 | 78 | 1013.2 |
| 20260901113036 | 57 | 0 | 0.0 | 4.0 | 0.00 | 0.00 | 0.00 | 78 | 1013.1 |
| 20260901112517 | 58 | 0 | 0.0 | 3.0 | 0.00 | 0.00 | 0.00 | 77 | 1013.2 |
| 20260901112017 | 58 | 0 | 0.0 | 3.0 | 0.00 | 0.00 | 0.00 | 77 | 1013.0 |
| 20260901111537 | 58 | 0 | 0.0 | 3.0 | 0.00 | 0.00 | 0.00 | 77 | 1013.1 |
| 20260901111018 | 58 | 0 | 0.0 | 3.0 | 0.00 | 0.00 | 0.00 | 77 | 1013.2 |
| 20260901110516 | 58 | 0 | 0.0 | 3.0 | 0.00 | 0.00 | 0.00 | 77 | 1013.2 |
| 20260901110039 | 58 | 0 | 0.0 | 4.0 | 0.00 | 0.00 | 0.00 | 77 | 1013.2 |
| 20260901105518 | 58 | 110 | 0.0 | 5.0 | 0.00 | 0.00 | 0.00 | 77 | 1013.2 |
| 20260901105021 | 58 | 0 | 0.0 | 5.0 | 0.00 | 0.00 | 0.00 | 77 | 1013.1 |
| 20260901104541 | 58 | 0 | 0.0 | 5.0 | 0.00 | 0.00 | 0.00 | 78 | 1013.1 |
| 20260901104020 | 58 | 154 | 0.0 | 5.0 | 0.00 | 0.00 | 0.00 | 78 | 1013.0 |
| 20260901103519 | 57 | 0 | 1.0 | 5.0 | 0.00 | 0.00 | 0.00 | 78 | 1012.9 |
| 20260901103034 | 57 | 0 | 0.0 | 6.0 | 0.00 | 0.00 | 0.00 | 79 | 1012.9 |
| 20260901102521 | 57 | 0 | 0.0 | 6.0 | 0.00 | 0.00 | 0.00 | 79 | 1012.8 |
| 20260901102016 | 57 | 0 | 0.0 | 2.0 | 0.00 | 0.00 | 0.00 | 79 | 1012.8 |
| 20260901101538 | 57 | 0 | 0.0 | 0.0 | 0.00 | 0.00 | 0.00 | 80 | 1012.9 |
| 20260901101016 | 57 | 0 | 0.0 | 1.0 | 0.00 | 0.00 | 0.00 | 81 | 1012.9 |
| 20260901100518 | 56 | 0 | 0.0 | 2.0 | 0.00 | 0.00 | 0.00 | 81 | 1013.0 |
| 20260901100038 | 56 | 0 | 0.0 | 4.0 | 0.00 | 0.00 | 0.00 | 81 | 1013.0 |
| 20260901095519 | 56 | 0 | 0.0 | 4.0 | 0.00 | 0.00 | 0.00 | 81 | 1013.1 |
| 20260901095020 | 56 | 0 | 0.0 | 4.0 | 0.00 | 0.00 | 0.00 | 81 | 1013.1 |
| 20260901094539 | 56 | 0 | 0.0 | 3.0 | 0.00 | 0.00 | 0.00 | 81 | 1013.0 |
| 20260901094019 | 56 | 0 | 0.0 | 3.0 | 0.00 | 0.00 | 0.00 | 80 | 1013.0 |
| 20260901093516 | 56 | 0 | 0.0 | 4.0 | 0.00 | 0.00 | 0.00 | 80 | 1012.9 |
| 20260901093038 | 56 | 0 | 0.0 | 4.0 | 0.00 | 0.00 | 0.00 | 80 | 1012.9 |
| 20260901092518 | 56 | 0 | 0.0 | 5.0 | 0.00 | 0.00 | 0.00 | 80 | 1013.0 |
| 20260901092023 | 56 | 0 | 0.0 | 5.0 | 0.00 | 0.00 | 0.00 | 80 | 1013.0 |
| 20260901091536 | 56 | 0 | 0.0 | 3.0 | 0.00 | 0.00 | 0.00 | 80 | 1013.1 |
| 20260901091017 | 56 | 0 | 0.0 | 1.0 | 0.00 | 0.00 | 0.00 | 80 | 1013.0 |
| 20260901090519 | 57 | 0 | 0.0 | 2.0 | 0.00 | 0.00 | 0.00 | 79 | 1013.1 |
| 20260901090035 | 57 | 0 | 0.0 | 2.0 | 0.00 | 0.00 | 0.00 | 79 | 1013.2 |
| 20260901085519 | 57 | 0 | 0.0 | 6.0 | 0.00 | 0.00 | 0.00 | 79 | 1013.1 |
| 20260901085020 | 57 | 0 | 0.0 | 6.0 | 0.00 | 0.00 | 0.00 | 79 | 1013.1 |
| 20260901084535 | 57 | 0 | 0.0 | 6.0 | 0.00 | 0.00 | 0.00 | 79 | 1013.2 |
| 20260901084019 | 57 | 0 | 0.0 | 6.0 | 0.00 | 0.00 | 0.00 | 79 | 1013.2 |
| 20260901083517 | 57 | 0 | 0.0 | 5.0 | 0.00 | 0.00 | 0.00 | 80 | 1013.2 |
| 20260901083038 | 57 | 0 | 0.0 | 5.0 | 0.00 | 0.00 | 0.00 | 80 | 1013.1 |
| 20260901082523 | 57 | 0 | 0.0 | 4.0 | 0.00 | 0.00 | 0.00 | 80 | 1013.1 |
| 20260901082019 | 57 | 0 | 0.0 | 4.0 | 0.00 | 0.00 | 0.00 | 80 | 1013.1 |
| 20260901081540 | 57 | 0 | 0.0 | 1.0 | 0.00 | 0.00 | 0.00 | 80 | 1013.1 |
| 20260901081020 | 57 | 0 | 0.0 | 3.0 | 0.00 | 0.00 | 0.00 | 79 | 1013.1 |
| 20260901080517 | 57 | 0 | 0.0 | 3.0 | 0.00 | 0.00 | 0.00 | 79 | 1013.1 |
| 20260901080048 | 57 | 0 | 0.0 | 3.0 | 0.00 | 0.00 | 0.00 | 79 | 1013.1 |
| 20260901075518 | 57 | 0 | 0.0 | 3.0 | 0.00 | 0.00 | 0.00 | 80 | 1013.1 |
| 20260901075019 | 57 | 107 | 0.0 | 5.0 | 0.00 | 0.00 | 0.00 | 79 | 1013.0 |
| 20260901074544 | 57 | 0 | 0.0 | 6.0 | 0.00 | 0.00 | 0.00 | 79 | 1013.1 |
| 20260901074018 | 57 | 140 | 1.0 | 6.0 | 0.00 | 0.00 | 0.00 | 80 | 1013.0 |
| 20260901073517 | 58 | 165 | 1.0 | 5.0 | 0.00 | 0.00 | 0.00 | 80 | 1013.0 |
| 20260901073039 | 57 | 0 | 0.0 | 5.0 | 0.00 | 0.00 | 0.00 | 80 | 1013.0 |
| 20260901072520 | 58 | 0 | 0.0 | 6.0 | 0.00 | 0.00 | 0.00 | 80 | 1013.0 |
| 20260901072020 | 58 | 0 | 0.0 | 6.0 | 0.00 | 0.00 | 0.00 | 80 | 1013.0 |
| 20260901071536 | 57 | 0 | 1.0 | 6.0 | 0.00 | 0.00 | 0.00 | 80 | 1013.0 |
| 20260901071018 | 57 | 0 | 0.0 | 3.0 | 0.00 | 0.00 | 0.00 | 80 | 1013.0 |
| 20260901070515 | 57 | 0 | 0.0 | 6.0 | 0.00 | 0.00 | 0.00 | 80 | 1013.0 |
| 20260901070036 | 57 | 196 | 0.0 | 6.0 | 0.00 | 0.00 | 0.00 | 80 | 1013.0 |
| 20260901065522 | 58 | 0 | 0.0 | 0.0 | 0.00 | 0.00 | 0.00 | 80 | 1013.0 |
| 20260901065018 | 58 | 0 | 0.0 | 0.0 | 0.00 | 0.00 | 0.00 | 80 | 1013.0 |
| 20260901064537 | 58 | 0 | 0.0 | 1.0 | 0.00 | 0.00 | 0.00 | 80 | 1013.0 |
| 20260901064020 | 58 | 0 | 0.0 | 1.0 | 0.00 | 0.00 | 0.00 | 80 | 1013.0 |
| 20260901063519 | 58 | 0 | 0.0 | 6.0 | 0.00 | 0.00 | 0.00 | 79 | 1013.0 |
| 20260901063038 | 58 | 0 | 0.0 | 6.0 | 0.00 | 0.00 | 0.00 | 79 | 1012.9 |
| 20260901062516 | 58 | 198 | 0.0 | 6.0 | 0.00 | 0.00 | 0.00 | 79 | 1012.9 |
| 20260901062016 | 58 | 192 | 0.0 | 5.0 | 0.00 | 0.00 | 0.00 | 79 | 1013.0 |
| 20260901061537 | 58 | 0 | 0.0 | 7.0 | 0.00 | 0.00 | 0.00 | 79 | 1012.9 |
| 20260901061017 | 58 | 181 | 1.0 | 8.0 | 0.00 | 0.00 | 0.00 | 79 | 1013.0 |
| 20260901060519 | 58 | 169 | 3.0 | 8.0 | 0.00 | 0.00 | 0.00 | 79 | 1013.0 |
| 20260901060036 | 58 | 163 | 2.0 | 7.0 | 0.00 | 0.00 | 0.00 | 79 | 1012.9 |
| 20260901055522 | 58 | 182 | 3.0 | 7.0 | 0.00 | 0.00 | 0.00 | 78 | 1012.8 |
| 20260901055019 | 59 | 169 | 3.0 | 7.0 | 0.00 | 0.00 | 0.00 | 78 | 1012.8 |
| 20260901054538 | 59 | 178 | 1.0 | 5.0 | 0.00 | 0.00 | 0.00 | 78 | 1012.7 |
| 20260901054019 | 59 | 0 | 2.0 | 6.0 | 0.00 | 0.00 | 0.00 | 78 | 1012.7 |
| 20260901053516 | 59 | 173 | 3.0 | 6.0 | 0.00 | 0.00 | 0.00 | 78 | 1012.7 |
| 20260901053052 | 59 | 196 | 3.0 | 6.0 | 0.00 | 0.00 | 0.00 | 78 | 1012.7 |
| 20260901052519 | 59 | 194 | 3.0 | 7.0 | 0.00 | 0.00 | 0.00 | 78 | 1012.8 |
| 20260901052020 | 59 | 173 | 3.0 | 7.0 | 0.00 | 0.00 | 0.00 | 77 | 1012.8 |
| 20260901051552 | 59 | 186 | 4.0 | 8.0 | 0.00 | 0.00 | 0.00 | 77 | 1012.8 |
| 20260901051017 | 59 | 169 | 3.0 | 8.0 | 0.00 | 0.00 | 0.00 | 77 | 1012.8 |
| 20260901050520 | 59 | 171 | 4.0 | 6.0 | 0.00 | 0.00 | 0.00 | 77 | 1012.8 |
| 20260901050036 | 60 | 197 | 4.0 | 9.0 | 0.00 | 0.00 | 0.00 | 76 | 1012.8 |
| 20260901045515 | 60 | 180 | 3.0 | 9.0 | 0.00 | 0.00 | 0.00 | 76 | 1012.7 |
| 20260901045023 | 60 | 180 | 5.0 | 9.0 | 0.00 | 0.00 | 0.00 | 76 | 1012.8 |
| 20260901044537 | 60 | 194 | 4.0 | 8.0 | 0.00 | 0.00 | 0.00 | 76 | 1012.8 |
| 20260901044019 | 60 | 207 | 4.0 | 9.0 | 0.00 | 0.00 | 0.00 | 76 | 1012.7 |
| 20260901043519 | 61 | 222 | 5.0 | 9.0 | 0.00 | 0.00 | 0.00 | 75 | 1012.8 |
| 20260901043040 | 61 | 219 | 5.0 | 9.0 | 0.00 | 0.00 | 0.00 | 76 | 1012.8 |
| 20260901042518 | 61 | 215 | 5.0 | 8.0 | 0.00 | 0.00 | 0.00 | 75 | 1012.7 |
| 20260901042019 | 61 | 205 | 4.0 | 10.0 | 0.00 | 0.00 | 0.00 | 75 | 1012.8 |
| 20260901041551 | 61 | 241 | 5.0 | 11.0 | 0.00 | 0.00 | 0.00 | 75 | 1012.7 |
| 20260901041019 | 61 | 195 | 5.0 | 11.0 | 0.00 | 0.00 | 0.00 | 75 | 1012.5 |
| 20260901040518 | 61 | 212 | 5.0 | 9.0 | 0.00 | 0.00 | 0.00 | 74 | 1012.5 |
| 20260901040038 | 61 | 236 | 5.0 | 11.0 | 0.00 | 0.00 | 0.00 | 75 | 1012.3 |
| 20260901035517 | 62 | 232 | 8.0 | 12.0 | 0.00 | 0.00 | 0.00 | 74 | 1012.2 |
| 20260901035017 | 62 | 220 | 7.0 | 14.0 | 0.00 | 0.00 | 0.00 | 74 | 1012.1 |
| 20260901034538 | 62 | 236 | 9.0 | 14.0 | 0.00 | 0.00 | 0.00 | 74 | 1012.0 |
| 20260901034017 | 62 | 237 | 7.0 | 12.0 | 0.00 | 0.00 | 0.00 | 74 | 1012.0 |
| 20260901033518 | 62 | 223 | 7.0 | 14.0 | 0.00 | 0.00 | 0.00 | 74 | 1012.0 |
| 20260901033035 | 62 | 252 | 7.0 | 15.0 | 0.00 | 0.00 | 0.00 | 73 | 1011.9 |
| 20260901032519 | 62 | 235 | 10.0 | 15.0 | 0.00 | 0.00 | 0.00 | 73 | 1011.8 |
| 20260901032024 | 62 | 232 | 11.0 | 17.0 | 0.00 | 0.00 | 0.00 | 73 | 1011.7 |
| 20260901031551 | 62 | 241 | 11.0 | 17.0 | 0.00 | 0.00 | 0.00 | 73 | 1011.7 |
| 20260901031020 | 63 | 225 | 9.0 | 16.0 | 0.00 | 0.00 | 0.00 | 72 | 1011.6 |
| 20260901030517 | 63 | 241 | 10.0 | 15.0 | 0.00 | 0.00 | 0.00 | 72 | 1011.6 |
| 20260901030036 | 63 | 239 | 11.0 | 18.0 | 0.00 | 0.00 | 0.00 | 71 | 1011.4 |
| 20260901025618 | 63 | 239 | 11.0 | 18.0 | 0.00 | 0.00 | 0.00 | 71 | 1011.2 |
| 20260901025020 | 64 | 256 | 13.0 | 20.0 | 0.00 | 0.00 | 0.00 | 70 | 1011.2 |
| 20260901024537 | 64 | 238 | 14.0 | 20.0 | 0.00 | 0.00 | 0.00 | 70 | 1011.1 |
| 20260901024018 | 64 | 242 | 12.0 | 18.0 | 0.00 | 0.00 | 0.00 | 69 | 1011.1 |
| 20260901023520 | 65 | 247 | 11.0 | 20.0 | 0.00 | 0.00 | 0.00 | 69 | 1011.1 |
| 20260901023037 | 65 | 235 | 11.0 | 20.0 | 0.00 | 0.00 | 0.00 | 68 | 1011.2 |
| 20260901022518 | 65 | 271 | 12.0 | 20.0 | 0.00 | 0.00 | 0.00 | 67 | 1011.1 |
| 20260901022018 | 66 | 256 | 13.0 | 19.0 | 0.00 | 0.00 | 0.00 | 67 | 1011.1 |
| 20260901021537 | 66 | 253 | 11.0 | 18.0 | 0.00 | 0.00 | 0.00 | 66 | 1011.0 |
| 20260901021020 | 67 | 271 | 10.0 | 18.0 | 0.00 | 0.00 | 0.00 | 65 | 1011.0 |
| 20260901020517 | 67 | 236 | 10.0 | 18.0 | 0.00 | 0.00 | 0.00 | 64 | 1011.0 |
| 20260901020037 | 68 | 250 | 11.0 | 17.0 | 0.00 | 0.00 | 0.00 | 63 | 1011.0 |
| 20260901015518 | 68 | 243 | 10.0 | 17.0 | 0.00 | 0.00 | 0.00 | 62 | 1010.8 |
| 20260901015024 | 69 | 254 | 11.0 | 17.0 | 0.00 | 0.00 | 0.00 | 62 | 1010.9 |
| 20260901014544 | 69 | 252 | 9.0 | 16.0 | 0.00 | 0.00 | 0.00 | 61 | 1010.9 |
| 20260901014017 | 70 | 246 | 11.0 | 18.0 | 0.00 | 0.00 | 0.00 | 60 | 1010.9 |
| 20260901013517 | 70 | 250 | 11.0 | 18.0 | 0.00 | 0.00 | 0.00 | 59 | 1010.8 |
| 20260901013036 | 71 | 261 | 10.0 | 17.0 | 0.00 | 0.00 | 0.00 | 58 | 1010.7 |
| 20260901012516 | 71 | 255 | 12.0 | 17.0 | 0.00 | 0.00 | 0.00 | 57 | 1010.8 |
| 20260901012016 | 71 | 250 | 10.0 | 17.0 | 0.00 | 0.00 | 0.00 | 56 | 1010.8 |
| 20260901011535 | 71 | 240 | 11.0 | 16.0 | 0.00 | 0.00 | 0.00 | 57 | 1010.8 |
| 20260901011021 | 71 | 267 | 10.0 | 16.0 | 0.00 | 0.00 | 0.00 | 57 | 1010.9 |
| 20260901010520 | 72 | 260 | 11.0 | 16.0 | 0.00 | 0.00 | 0.00 | 56 | 1010.8 |
| 20260901010035 | 72 | 240 | 10.0 | 17.0 | 0.00 | 0.00 | 0.00 | 55 | 1010.8 |
| 20260901005518 | 73 | 247 | 11.0 | 17.0 | 0.00 | 0.00 | 0.00 | 54 | 1010.8 |
| 20260901005017 | 73 | 244 | 10.0 | 16.0 | 0.00 | 0.00 | 0.00 | 54 | 1010.8 |
| 20260901004542 | 74 | 261 | 10.0 | 16.0 | 0.00 | 0.00 | 0.00 | 53 | 1010.9 |
| 20260901004016 | 74 | 238 | 11.0 | 16.0 | 0.00 | 0.00 | 0.00 | 52 | 1011.0 |
| 20260901003517 | 74 | 252 | 12.0 | 16.0 | 0.00 | 0.00 | 0.00 | 52 | 1010.9 |
| 20260901003037 | 74 | 232 | 9.0 | 17.0 | 0.00 | 0.00 | 0.00 | 52 | 1011.0 |
| 20260901002518 | 74 | 244 | 11.0 | 17.0 | 0.00 | 0.00 | 0.00 | 52 | 1010.9 |
| 20260901002019 | 75 | 290 | 11.0 | 15.0 | 0.00 | 0.00 | 0.00 | 51 | 1010.8 |
| 20260901001550 | 75 | 254 | 10.0 | 15.0 | 0.00 | 0.00 | 0.00 | 51 | 1010.9 |
| 20260901001019 | 75 | 258 | 9.0 | 17.0 | 0.00 | 0.00 | 0.00 | 52 | 1010.9 |
| 20260901000518 | 75 | 288 | 9.0 | 17.0 | 0.00 | 0.00 | 0.00 | 50 | 1010.8 |
| 20260901000036 | 75 | 223 | 10.0 | 17.0 | 0.00 | 0.00 | 0.00 | 51 | 1010.9 |
| 20260831235519 | 75 | 276 | 11.0 | 16.0 | 0.00 | 0.00 | 0.00 | 51 | 1010.9 |
| 20260831235018 | 75 | 250 | 11.0 | 16.0 | 0.00 | 0.00 | 0.00 | 51 | 1011.0 |
| 20260831234536 | 76 | 267 | 11.0 | 16.0 | 0.00 | 0.00 | 0.00 | 50 | 1010.9 |
| 20260831234019 | 76 | 265 | 9.0 | 13.0 | 0.00 | 0.00 | 0.00 | 50 | 1010.9 |
| 20260831233519 | 76 | 261 | 7.0 | 14.0 | 0.00 | 0.00 | 0.00 | 51 | 1010.9 |
| 20260831233037 | 76 | 268 | 10.0 | 15.0 | 0.00 | 0.00 | 0.00 | 50 | 1011.0 |
| 20260831232519 | 77 | 240 | 10.0 | 15.0 | 0.00 | 0.00 | 0.00 | 49 | 1011.0 |
| 20260831232018 | 77 | 241 | 9.0 | 16.0 | 0.00 | 0.00 | 0.00 | 49 | 1011.1 |
| 20260831231539 | 77 | 274 | 9.0 | 16.0 | 0.00 | 0.00 | 0.00 | 50 | 1011.1 |
| 20260831231018 | 76 | 279 | 10.0 | 14.0 | 0.00 | 0.00 | 0.00 | 49 | 1011.1 |
| 20260831230520 | 77 | 250 | 10.0 | 14.0 | 0.00 | 0.00 | 0.00 | 49 | 1011.2 |
| 20260831230037 | 77 | 258 | 8.0 | 16.0 | 0.00 | 0.00 | 0.00 | 50 | 1011.3 |
| 20260831225521 | 77 | 256 | 10.0 | 16.0 | 0.00 | 0.00 | 0.00 | 49 | 1011.3 |
| 20260831225019 | 78 | 247 | 10.0 | 16.0 | 0.00 | 0.00 | 0.00 | 49 | 1011.3 |
| 20260831224537 | 77 | 230 | 11.0 | 16.0 | 0.00 | 0.00 | 0.00 | 48 | 1011.4 |
| 20260831224020 | 78 | 248 | 10.0 | 16.0 | 0.00 | 0.00 | 0.00 | 48 | 1011.3 |
| 20260831223519 | 79 | 269 | 10.0 | 16.0 | 0.00 | 0.00 | 0.00 | 46 | 1011.3 |
| 20260831223035 | 78 | 279 | 11.0 | 16.0 | 0.00 | 0.00 | 0.00 | 46 | 1011.4 |
| 20260831222517 | 79 | 267 | 9.0 | 15.0 | 0.00 | 0.00 | 0.00 | 47 | 1011.4 |
| 20260831222019 | 79 | 269 | 11.0 | 15.0 | 0.00 | 0.00 | 0.00 | 46 | 1011.4 |
| 20260831221537 | 78 | 277 | 9.0 | 19.0 | 0.00 | 0.00 | 0.00 | 46 | 1011.4 |
| 20260831221018 | 78 | 250 | 10.0 | 19.0 | 0.00 | 0.00 | 0.00 | 45 | 1011.5 |
| 20260831220522 | 79 | 242 | 8.0 | 18.0 | 0.00 | 0.00 | 0.00 | 45 | 1011.5 |
| 20260831220037 | 80 | 254 | 9.0 | 15.0 | 0.00 | 0.00 | 0.00 | 44 | 1011.5 |
| 20260831215519 | 79 | 223 | 9.0 | 18.0 | 0.00 | 0.00 | 0.00 | 44 | 1011.6 |
| 20260831215020 | 79 | 255 | 10.0 | 18.0 | 0.00 | 0.00 | 0.00 | 45 | 1011.6 |
| 20260831214536 | 79 | 277 | 10.0 | 18.0 | 0.00 | 0.00 | 0.00 | 45 | 1011.7 |
| 20260831214019 | 79 | 238 | 10.0 | 16.0 | 0.00 | 0.00 | 0.00 | 47 | 1011.7 |
| 20260831213520 | 79 | 278 | 8.0 | 16.0 | 0.00 | 0.00 | 0.00 | 45 | 1011.8 |
| 20260831213036 | 78 | 257 | 10.0 | 16.0 | 0.00 | 0.00 | 0.00 | 45 | 1011.9 |
| 20260831212519 | 79 | 274 | 9.0 | 14.0 | 0.00 | 0.00 | 0.00 | 45 | 1011.9 |
| 20260831212017 | 78 | 258 | 8.0 | 16.0 | 0.00 | 0.00 | 0.00 | 46 | 1011.9 |
| 20260831211538 | 78 | 238 | 9.0 | 16.0 | 0.00 | 0.00 | 0.00 | 46 | 1011.9 |
| 20260831211016 | 78 | 286 | 9.0 | 16.0 | 0.00 | 0.00 | 0.00 | 45 | 1011.9 |
| 20260831210517 | 78 | 287 | 6.0 | 15.0 | 0.00 | 0.00 | 0.00 | 48 | 1011.8 |
| 20260831210043 | 77 | 225 | 9.0 | 15.0 | 0.00 | 0.00 | 0.00 | 48 | 1011.9 |